LFSB/MLH METAR and TAF weather

Enter ICAO airport designator
Station Type Date Time Source
LFSB METAR 2019/06/17 12:30 UTC NOAA

LFSB 171230Z 02004KT 310V070 9999 FEW043 25/14 Q1018 NOSIG


Station Type Date Time Source
LFSB Decoded METAR 2019/06/17 12:30 UTC NOAA

Bale-Mulhouse, France (LFSB) 47-36N 007-31E 271M
Jun 17, 2019 - 08:30 AM EDT / 2019.06.17 1230 UTC
Wind: from the NNE (020 degrees) at 5 MPH (4 KT) (direction variable):0
Visibility: greater than 7 mile(s):0
Sky conditions: mostly clear
Temperature: 77 F (25 C)
Dew Point: 57 F (14 C)
Relative Humidity: 50%
Pressure (altimeter): 30.06 in. Hg (1018 hPa)
ob: LFSB 171230Z 02004KT 310V070 9999 FEW043 25/14 Q1018 NOSIG
cycle: 12

Station Type Date Time Source
LFSB TAF 2019/06/17 12:21 UTC NOAA

TAF LFSB 171100Z 1712/1812 36008KT 9999 FEW040
BECMG 1718/1721 VRB03KT PROB30
TEMPO 1802/1805 4000 MIFG

Example: see airport list